• Join FlightAware (Why Join?)
  • Login
  • US Flag 
11:50AM EDT


 

Airport Tracker/Info


-or-


 

Live Flight TrackerFlight Track Log ✈ VH-VQB ✈ 07-Jun-2013 ✈ YSSY / SYD - YBCG / OOL

Flight Track Log - Related Links

Times and Time Zones

All times are in EDT time to prevent confusion due to time zone crossing. See the VH-VQB flight status page for this flight to view local times or setup timezone preferences in your user account.

Time Position Orientation Groundspeed Altitude Reporting Facility
EDT Latitude Longitude Course Direction KTS MPH feet Rate Location/Type
06:57PM -33.9340 151.1760 194° South  Level FlightAware
07:00PM -33.9370 151.1770 165° South 15 17 120 Level FlightAware
07:00PM -33.9380 151.1770 180° South 14 16 120 Level FlightAware
07:00PM -33.9390 151.1780 140° Southeast 14 16 180 Level FlightAware
07:01PM -33.9410 151.1780 180° South 17 20 180 Level FlightAware
07:01PM -33.9430 151.1790 157° South 19 22 180 Level FlightAware
07:02PM -33.9450 151.1790 180° South 16 18 180 Level FlightAware
07:02PM -33.9470 151.1790 180° South 14 16 180 Level FlightAware
07:03PM -33.9490 151.1800 157° South 24 28 180 Level FlightAware
07:03PM -33.9510 151.1800 180° South 15 17 240 Level FlightAware
07:03PM -33.9510 151.1810 90° East 15 17 240 Level FlightAware
07:03PM -33.9510 151.1840 90° East 19 22 240 Level FlightAware
07:04PM -33.9510 151.1850 90° East 16 18 300 Level FlightAware
07:04PM -33.9520 151.1860 140° Southeast 19 22 300 Level FlightAware
07:04PM -33.9530 151.1870 140° Southeast 21 24 300 Level FlightAware
07:04PM -33.9540 151.1870 180° South 23 26 300 Level FlightAware
07:05PM -33.9580 151.1880 168° South 28 32 360 Level FlightAware
07:05PM -33.9620 151.1890 168° South 28 32 360 Level FlightAware
07:06PM -33.9650 151.1900 165° South 29 33 420 Level FlightAware
07:06PM -33.9690 151.1910 168° South 18 21 480 Level FlightAware
07:07PM -33.9710 151.1920 157° South 13 15 660 Level FlightAware
07:07PM -33.9710 151.1930 90° East 14 16 840 Level FlightAware
07:08PM -33.9540 151.1890 349° North 149 171 1,080 Level FlightAware
07:09PM -33.9347 151.1883 349° North 147 169 1,600 2,400 Climbing Aus ATC (RADAR)
07:09PM -33.9290 151.1900 349° North 168 193 1,500 360 Descending FlightAware
07:09PM -33.9150 151.1990 28° Northeast 189 217 1,800 1,620 Climbing FlightAware
07:10PM -33.8930 151.2210 40° Northeast 227 261 2,800 2,040 Climbing FlightAware
07:10PM -33.8740 151.2400 40° Northeast 249 287 3,700 2,280 Climbing FlightAware
07:10PM -33.8486 151.2627 40° Northeast 267 307 4,500 1,200 Climbing Aus ATC (RADAR)
07:11PM -33.8200 151.3000 40° Northeast 346 398 4,800 480 Climbing FlightAware
07:11PM -33.8049 151.3563 40° Northeast 347 399 5,000 180 Climbing Aus ATC (RADAR)
07:12PM -33.8020 151.3680 40° Northeast 365 420 4,900 -360 Descending FlightAware
07:12PM -33.7930 151.3870 60° Northeast 367 422 4,900 1,560 Level FlightAware
07:12PM -33.7655 151.4271 60° Northeast 371 427 5,800 2,280 Climbing Aus ATC (RADAR)
07:12PM -33.7560 151.4420 60° Northeast 379 436 6,200 4,080 Climbing FlightAware
07:13PM -33.7280 151.4820 50° Northeast 365 420 8,200 3,900 Climbing FlightAware
07:13PM -33.7180 151.4970 51° Northeast 359 413 8,900 3,420 Climbing FlightAware
07:14PM -33.6700 151.5680 51° Northeast 360 414 11,400 3,840 Climbing FlightAware
07:14PM -33.6499 151.5969 51° Northeast 360 414 12,600 2,400 Climbing Aus ATC (RADAR)
07:14PM -33.6220 151.6380 51° Northeast 379 436 13,200 2,160 Climbing FlightAware
07:15PM -33.5700 151.6990 44° Northeast 370 426 15,200 2,580 Climbing FlightAware
07:15PM -33.5530 151.7070 21° North 367 422 15,600 3,000 Climbing FlightAware
07:16PM -33.5067 151.7215 21° North 361 415 16,900 2,340 Climbing Aus ATC (RADAR)
07:16PM -33.4550 151.7380 21° North 379 436 17,800 2,040 Climbing FlightAware
07:17PM -33.4132 151.7510 21° North 377 434 18,800 1,500 Climbing Aus ATC (RADAR)
07:17PM -33.3860 151.7600 21° North 398 458 18,800 600 Level FlightAware
07:18PM -33.3100 151.7840 15° North 417 480 19,400 1,380 Climbing FlightAware
07:18PM -33.2392 151.8074 15° North 433 498 20,600 1,860 Climbing Aus ATC (RADAR)
07:18PM -33.2230 151.8130 15° North 430 495 20,800 2,820 Climbing FlightAware
07:19PM -33.1409 151.8393 15° North 418 481 23,000 2,760 Climbing Aus ATC (RADAR)
07:19PM -33.1380 151.8400 15° North 403 464 22,900 3,180 Descending FlightAware
07:20PM -33.0670 151.8630 15° North 381 438 25,300 3,300 Climbing FlightAware
07:20PM -33.0117 151.8818 15° North 366 421 26,900 2,100 Climbing Aus ATC (RADAR)
07:20PM -33.0010 151.8850 15° North 365 420 26,700 180 Descending FlightAware
07:21PM -32.9220 151.9090 14° North 403 464 27,100 660 Climbing FlightAware
07:22PM -32.8642 151.9274 14° North 409 471 27,600 600 Climbing Aus ATC (RADAR)
07:22PM -32.8470 151.9330 14° North 421 484 27,500 300 Descending FlightAware
07:22PM -32.7923 151.9506 14° North 426 490 27,800 720 Climbing Aus ATC (RADAR)
07:23PM -32.7680 151.9580 14° North 437 503 28,000 1,380 Climbing FlightAware
07:23PM -32.7062 151.9779 14° North 446 513 28,800 1,020 Climbing Aus ATC (RADAR)
07:23PM -32.6790 151.9870 14° North 446 513 28,800 1,260 Level FlightAware
07:24PM -32.6002 152.0121 14° North 448 516 29,900 1,620 Climbing Aus ATC (RADAR)
07:24PM -32.5970 152.0130 14° North 452 520 29,900 1,080 Level FlightAware
07:25PM -32.5070 152.0420 15° North 446 513 30,800 1,320 Climbing FlightAware
07:25PM -32.4240 152.0680 15° North 452 520 31,800 1,380 Climbing FlightAware
07:26PM -32.3440 152.0930 15° North 449 517 32,700 1,440 Climbing FlightAware
07:26PM -32.2921 152.1100 15° North 448 516 33,400 1,320 Climbing Aus ATC (RADAR)
07:27PM -32.2580 152.1200 15° North 446 513 33,700 1,080 Climbing FlightAware
07:28PM -32.1650 152.1500 15° North 435 501 34,600 1,260 Climbing FlightAware
07:28PM -32.0991 152.1697 15° North 442 509 35,300 600 Climbing Aus ATC (RADAR)
07:28PM -32.0870 152.1740 15° North 431 496 35,000 -420 Descending FlightAware
07:29PM -32.0090 152.1990 15° North 432 497 35,000  Level FlightAware
07:30PM -31.9340 152.2220 15° North 435 501 35,000 180 Level FlightAware
07:30PM -31.8876 152.2369 15° North 439 505 35,200  Climbing Aus ATC (RADAR)
07:30PM -31.8400 152.2510 15° North 442 509 35,000 -240 Descending FlightAware
07:31PM -31.7630 152.2750 15° North 442 509 35,000 240 Level FlightAware
07:31PM -31.7000 152.2955 15° North 438 504 35,300  Climbing Aus ATC (RADAR)
07:32PM -31.6420 152.3130 15° North 442 509 35,000 -300 Descending FlightAware
07:33PM -31.5660 152.3370 15° North 442 509 35,000 240 Level FlightAware
07:33PM -31.4878 152.3615 15° North 440 506 35,300  Climbing Aus ATC (RADAR)
07:33PM -31.4890 152.3610 15° North 445 512 35,000  Descending FlightAware
07:34PM -31.4379 152.3766 15° North 443 510 35,300  Climbing Aus ATC (RADAR)
07:34PM -31.4030 152.3870 15° North 447 514 35,000 -300 Descending FlightAware
07:35PM -31.3170 152.4140 15° North 446 513 35,000 240 Level FlightAware
07:35PM -31.2619 152.4309 15° North 442 509 35,300  Climbing Aus ATC (RADAR)
07:35PM -31.2360 152.4390 15° North 444 511 35,000  Descending FlightAware
07:36PM -31.1986 152.4508 15° North 444 511 35,300  Climbing Aus ATC (RADAR)
07:36PM -31.1460 152.4660 15° North 449 517 35,000  Descending FlightAware
07:36PM -31.0980 152.4811 15° North 449 517 35,300  Climbing Aus ATC (RADAR)
07:37PM -31.0630 152.4920 15° North 456 525 35,000 120 Descending FlightAware
07:37PM -30.9958 152.5126 15° North 455 524 35,400 120 Climbing Aus ATC (RADAR)
07:37PM -30.9830 152.5170 15° North 449 517 35,100 -300 Descending FlightAware
07:38PM -30.8720 152.5510 15° North 446 513 35,100 120 Level FlightAware
07:39PM -30.8028 152.5719 15° North 452 520 35,300  Climbing Aus ATC (RADAR)
07:39PM -30.8090 152.5710 15° North 446 513 35,100  Descending FlightAware
07:39PM -30.7427 152.5978 15° North 461 531 35,300 -180 Climbing Aus ATC (RADAR)
07:40PM -30.6840 152.6260 15° North 464 534 35,000  Descending FlightAware
07:40PM -30.6333 152.6499 15° North 465 535 35,300  Climbing Aus ATC (RADAR)
07:41PM -30.6070 152.6620 15° North 463 533 35,000 -360 Descending FlightAware
07:41PM -30.5290 152.6980 22° Northeast 463 533 35,000 240 Level FlightAware
07:42PM -30.4677 152.7260 22° Northeast 456 525 35,300  Climbing Aus ATC (RADAR)
07:42PM -30.4510 152.7330 22° Northeast 462 532 35,000  Descending FlightAware
07:42PM -30.3675 152.7701 22° Northeast 457 526 35,300  Climbing Aus ATC (RADAR)
07:43PM -30.3460 152.7820 22° Northeast 462 532 35,000 -360 Descending FlightAware
07:43PM -30.2660 152.8190 22° Northeast 461 531 35,000 240 Level FlightAware
07:44PM -30.1962 152.8507 22° Northeast 462 532 35,300  Climbing Aus ATC (RADAR)
07:44PM -30.1880 152.8550 22° Northeast 461 531 35,000  Descending FlightAware
07:44PM -30.1368 152.8784 22° Northeast 461 531 35,300  Climbing Aus ATC (RADAR)
07:45PM -30.1070 152.8920 22° Northeast 462 532 35,000 -360 Descending FlightAware
07:45PM -30.0270 152.9280 21° North 464 534 35,000 -120 Level FlightAware
07:46PM -29.9576 152.9615 21° North 466 536 34,900 -600 Descending Aus ATC (RADAR)
07:46PM -29.9260 152.9740 21° North 463 533 34,500 -1,860 Descending FlightAware
07:47PM -29.8480 153.0100 22° Northeast 464 534 33,200 -1,740 Descending FlightAware
07:47PM -29.8080 153.0296 22° Northeast 464 534 32,800 -2,220 Descending Aus ATC (RADAR)
07:47PM -29.7800 153.0410 22° Northeast 461 531 31,900 -2,280 Descending FlightAware
07:48PM -29.7380 153.0598 22° Northeast 462 532 31,500 -2,220 Descending Aus ATC (RADAR)
07:48PM -29.6820 153.0860 22° Northeast 457 526 30,100 -3,000 Descending FlightAware
07:49PM -29.6010 153.1220 21° North 467 537 28,000 -3,300 Descending FlightAware
07:50PM -29.5210 153.1580 21° North 476 548 25,700 -3,120 Descending FlightAware
07:50PM -29.4564 153.1875 21° North 479 551 24,500 -2,940 Descending Aus ATC (RADAR)
07:50PM -29.4250 153.2010 21° North 476 548 23,500 -3,060 Descending FlightAware
07:51PM -29.3480 153.2360 22° Northeast 473 544 21,600 -2,700 Descending FlightAware
07:51PM -29.3024 153.2563 22° Northeast 472 543 20,900 -3,000 Descending Aus ATC (RADAR)
07:52PM -29.2280 153.2900 22° Northeast 468 539 18,800 -2,880 Descending FlightAware
07:53PM -29.1430 153.3280 21° North 451 519 17,000 -2,580 Descending FlightAware
07:53PM -29.0670 153.3620 21° North 434 499 15,300 -1,920 Descending FlightAware
07:54PM -28.9940 153.3950 22° Northeast 399 459 14,500 -1,620 Descending FlightAware
07:55PM -28.9342 153.4211 22° Northeast 397 457 13,400 -2,400 Descending Aus ATC (RADAR)
07:55PM -28.9250 153.4260 22° Northeast 390 449 12,900 -1,620 Descending FlightAware
07:55PM -28.8845 153.4442 22° Northeast 387 445 12,600 -2,040 Descending Aus ATC (RADAR)
07:56PM -28.8430 153.4620 22° Northeast 369 425 11,200 -2,520 Descending FlightAware
07:56PM -28.7897 153.4860 22° Northeast 363 418 10,100 -2,580 Descending Aus ATC (RADAR)
07:56PM -28.7820 153.4890 22° Northeast 365 420 9,500 -2,640 Descending FlightAware
07:57PM -28.7430 153.5070 22° Northeast 354 407 8,700 -900 Descending FlightAware
07:57PM -28.6980 153.5270 21° North 319 367 8,700 -300 Level FlightAware
07:58PM -28.6590 153.5440 21° North 294 338 8,400 -1,800 Descending FlightAware
07:58PM -28.6260 153.5590 22° Northeast 310 357 7,100 -2,880 Descending FlightAware
07:58PM -28.5970 153.5710 20° North 326 375 6,000 -2,280 Descending FlightAware
07:59PM -28.5710 153.5830 22° Northeast 319 367 5,600 -900 Descending FlightAware
07:59PM -28.5253 153.6037 22° Northeast 308 354 5,300 -480 Descending Aus ATC (RADAR)
07:59PM -28.5220 153.6050 22° Northeast 308 354 5,300 -720 Level FlightAware
08:00PM -28.4800 153.6230 21° North 284 327 4,800 -720 Descending FlightAware
08:01PM -28.3990 153.6514 21° North 222 255 4,100 -420 Descending Aus ATC (RADAR)
08:02PM -28.3669 153.6342 335° Northwest 192 221 4,100 -540 Level Aus ATC (RADAR)
08:03PM -28.3329 153.6137 332° Northwest 166 191 3,300 -1,200 Descending Aus ATC (RADAR)
08:03PM -28.3130 153.6010 332° Northwest 156 180 2,500 -1,140 Descending FlightAware
08:04PM -28.2970 153.5910 331° Northwest 149 171 2,200 -480 Descending FlightAware
08:04PM -28.2810 153.5800 329° Northwest 145 167 2,100 -120 Descending FlightAware
08:04PM -28.2665 153.5709 329° Northwest 143 165 2,100 -960 Level Aus ATC (RADAR)
08:05PM -28.2650 153.5700 329° Northwest 142 163 1,700 -1,620 Descending FlightAware
08:05PM -28.2570 153.5650 331° Northwest 141 162 1,600 -720 Descending FlightAware
08:05PM -28.2410 153.5550 331° Northwest 142 163 1,200 -720 Descending FlightAware
08:06PM -28.2290 153.5470 330° Northwest 137 158 1,000 -300 Descending FlightAware
08:06PM -28.2160 153.5384 330° Northwest 135 155 1,000  Level Aus ATC (RADAR)
08:06PM -28.2160 153.5390 330° Northwest 137 158 1,000 -720 Level FlightAware
08:07PM -28.1837 153.5179 330° Northwest 132 152 300 -840 Descending Aus ATC (RADAR)